Latest Coastal Weather Observations for Coolangatta

IDQ60701

Issued at 9:42 pm EST Saturday 18 April 2015 (issued every 10 minutes, with the page automatically refreshed every 10 minutes)

About coastal observations | Map of coastal stations | Coastal observations for QLD | Marine services | Other Formats
Station Details ID: 040717 Name: COOLANGATTA Lat: -28.17 Lon: 153.51 Height: 4.0 m
Data from the previous 72 hours. | See also: Recent months at Coolangatta
Date/Time
EST
Temp

°C
Wind Pressure Rain
since 9am
mm
Weather Cloud Vis
km
Sea
Height
m
Swell
Dir
 
Speed
knots
Gust
knots
hPa Trend Height
m
Period
s
Dir
18/09:30pm 24.0 NNE 12 15 1020.8 - 0.2 - Partly cloudy 10 - - - -
18/09:00pm 24.2 NNE 13 16 1020.7 - 0.2 - Mostly cloudy 10 - - - -
18/08:30pm 24.3 NNE 13 17 1020.8 - 0.2 - Partly cloudy 10 - - - -
18/08:00pm 24.2 NNE 13 18 1020.5 - 0.2 - Partly cloudy 10 - - - -
18/07:30pm 24.2 NNE 12 16 1020.3 - 0.2 - Partly cloudy 10 - - - -
18/07:00pm 24.2 NNE 13 17 1019.9 - 0.2 - Partly cloudy 10 - - - -
18/06:30pm 24.2 NNE 13 18 1019.9 - 0.2 - Partly cloudy 10 - - - -
18/06:00pm 24.4 NNE 13 17 1019.9 - 0.2 - Partly cloudy 10 - - - -
18/05:30pm 24.5 NNE 12 16 1019.8 - 0.2 - Partly cloudy 10 - - - -
18/05:00pm 24.9 NNE 12 14 1019.6 - 0.2 - Partly cloudy 10 - - - -
18/04:30pm 24.9 NNE 11 14 1019.6 - 0.2 - Partly cloudy 10 - - - -
18/04:00pm 25.4 NNE 10 13 1019.4 - 0.2 - - 10 - - - -
18/03:30pm 25.6 NNE 11 13 1019.3 - 0.2 - - 10 - - - -
18/03:00pm 26.1 NNE 12 14 1019.3 - 0.2 - - 10 - - - -
18/02:30pm 26.7 NNE 12 15 1019.3 - 0.2 - - 10 - - - -
18/02:00pm 26.6 NNE 12 15 1019.5 - 0.2 - - 10 - - - -
18/01:30pm 27.0 NNE 12 16 1019.8 - 0.2 - Partly cloudy 10 - - - -
18/01:00pm 26.5 NNE 12 15 1020.3 - 0.2 - Partly cloudy 10 - - - -
18/12:30pm 27.0 N 12 15 1020.6 - 0.2 - - 10 - - - -
18/12:00pm 26.4 NNE 13 16 1021.1 - 0.2 - - 10 - - - -
18/11:30am 26.7 N 12 16 1021.7 - 0.2 - Partly cloudy 10 - - - -
18/11:00am 26.4 N 9 12 1022.1 - 0.2 - Partly cloudy 10 - - - -
18/10:30am 26.1 N 9 13 1022.6 - 0.2 - Partly cloudy 10 - - - -
18/10:00am 25.4 N 6 8 1022.9 - 0.0 - Partly cloudy 10 - - - -
18/08:30am 22.6 WSW 4 6 1023.2 - 0.0 - Partly cloudy 10 - - - -
18/08:00am 20.5 WSW 6 8 1023.0 - 0.0 - Partly cloudy 10 - - - -
18/07:30am 20.5 WSW 5 8 1022.6 - 0.0 - Partly cloudy 10 - - - -
18/07:00am 19.4 SSW 2 4 1022.3 - 0.0 - Partly cloudy 10 - - - -
18/06:30am 17.9 S 2 4 1022.0 - 0.0 - - 10 - - - -
18/06:00am 17.9 SW 4 5 1021.7 - 0.0 - Mostly clear 10 - - - -
18/05:30am 18.3 CALM 0 3 1021.6 - 0.0 - Partly cloudy 10 - - - -
18/05:00am 18.4 SSW 3 4 1021.7 - 0.0 - Partly cloudy 10 - - - -
18/04:30am 18.0 CALM 0 0 1021.5 - 0.0 - Partly cloudy 10 - - - -
18/04:00am 18.3 SSW 3 5 1021.6 - 0.0 - Partly cloudy 10 - - - -
18/03:30am 18.4 SSW 1 4 1021.7 - 0.0 - Partly cloudy 10 - - - -
18/03:00am 18.4 SW 3 5 1021.6 - 0.0 - Partly cloudy 10 - - - -
18/02:30am 18.4 SW 1 4 1021.9 - 0.0 - Partly cloudy 10 - - - -
18/02:00am 18.1 SW 2 4 1022.4 - 0.0 - Partly cloudy 10 - - - -
18/01:30am 18.3 SW 4 7 1022.5 - 0.0 - Partly cloudy 10 - - - -
18/01:00am 18.2 WSW 4 6 1022.8 - 0.0 - Partly cloudy 10 - - - -
18/12:30am 18.3 SW 3 5 1022.8 - 0.0 - Partly cloudy 10 - - - -
 
Date/Time
EST
Temp

°C
Wind Pressure Rain
since 9am
mm
Weather Cloud Vis
km
Sea
Height
m
Swell
Dir
 
Speed
knots
Gust
knots
hPa Trend Height
m
Period
s
Dir
17/11:30pm 18.5 SW 4 6 1023.3 - 0.0 - Partly cloudy 10 - - - -
17/11:00pm 18.8 WSW 4 5 1023.3 - 0.0 - Partly cloudy 10 - - - -
17/10:30pm 19.1 SW 4 5 1023.4 - 0.0 - Partly cloudy 10 - - - -
17/10:00pm 19.3 WSW 6 8 1023.5 - 0.0 - Partly cloudy 10 - - - -
17/09:30pm 19.2 SW 3 5 1023.5 - 0.0 - Partly cloudy 10 - - - -
17/09:00pm 19.7 WSW 5 7 1023.5 - 0.0 - Partly cloudy 10 - - - -
17/08:30pm 19.7 WSW 7 8 1023.5 - 0.0 - Partly cloudy 10 - - - -
17/08:00pm 21.0 N 3 6 1023.2 - 0.0 - Partly cloudy 10 - - - -
17/07:30pm 23.4 NE 8 10 1022.9 - 0.0 - - 10 - - - -
17/07:00pm 23.1 NE 8 10 1022.7 - 0.0 - - 10 - - - -
17/06:30pm 23.2 NE 8 10 1022.4 - 0.0 - - 10 - - - -
17/06:00pm 23.3 NE 9 12 1022.1 - 0.0 - Mostly clear 10 - - - -
17/05:30pm 23.6 ENE 9 12 1021.7 - 0.0 - Partly cloudy 10 - - - -
17/05:00pm 23.8 ENE 8 11 1021.6 - 0.0 - Partly cloudy 10 - - - -
17/04:30pm 24.0 ENE 9 11 1021.5 - 0.0 - - 10 - - - -
17/04:00pm 25.0 ENE 10 12 1021.3 - 0.0 - - 10 - - - -
17/03:30pm 25.6 ENE 10 13 1021.2 - 0.0 - - 10 - - - -
17/03:00pm 25.9 ENE 10 13 1021.3 - 0.0 - - 10 - - - -
17/02:30pm 25.9 ENE 11 14 1021.3 - 0.0 - - 10 - - - -
17/02:00pm 26.0 NE 10 13 1021.5 - 0.0 - - 10 - - - -
17/01:30pm 26.0 NE 10 12 1021.6 - 0.0 - - 10 - - - -
17/01:00pm 26.5 NE 9 12 1021.9 - 0.0 - - 10 - - - -
17/12:30pm 26.1 NE 7 11 1022.4 - 0.0 - - 10 - - - -
17/12:00pm 26.0 NE 7 10 1022.9 - 0.0 - Mostly clear 10 - - - -
17/11:30am 25.4 NE 6 9 1023.3 - 0.0 - Partly cloudy 10 - - - -
17/11:00am 25.5 NE 5 8 1024.0 - 0.0 - Partly cloudy 10 - - - -
17/10:30am 25.7 NE 5 8 1024.0 - 0.0 - Partly cloudy 10 - - - -
17/10:00am 25.3 NNE 5 7 1024.3 - 0.0 - - 10 - - - -
17/09:30am 25.3 NNE 5 7 1024.6 - 0.0 - - 10 - - - -
17/09:00am 24.7 NE 3 7 1024.5 - 0.0 - - 10 - - - -
17/08:30am 23.3 SSE 3 4 1024.6 - 0.0 - - 10 - - - -
17/08:00am 21.5 SSE 3 5 1024.7 - 0.0 - - 10 - - - -
17/07:30am 19.9 SSE 3 4 1024.6 - 0.0 - - 10 - - - -
17/07:00am 18.1 SSW 3 4 1024.0 - 0.0 - - 10 - - - -
17/06:30am 17.1 SSW 3 5 1023.7 - 0.0 - - 10 - - - -
17/06:00am 17.0 SSW 3 4 1023.5 - 0.0 - - 10 - - - -
17/05:30am 16.9 SSW 3 3 1023.2 - 0.0 - - 10 - - - -
17/05:00am 16.7 CALM 0 0 1023.0 - 0.0 - - 10 - - - -
17/04:30am 16.8 CALM 0 0 1022.8 - 0.0 - - 10 - - - -
17/04:00am 17.5 S 3 3 1022.7 - 0.0 - - 10 - - - -
17/03:30am 17.6 CALM 0 0 1022.9 - 0.0 - Partly cloudy 10 - - - -
17/03:00am 17.4 SW 1 3 1022.8 - 0.0 - Partly cloudy 10 - - - -
17/02:30am 17.6 SSW 2 4 1022.9 - 0.0 - - 10 - - - -
17/02:00am 17.6 SSW 2 4 1023.1 - 0.0 - - 10 - - - -
17/01:30am 17.8 CALM 0 0 1023.4 - 0.0 - Partly cloudy 10 - - - -
17/01:00am 18.0 SW 3 4 1023.6 - 0.0 - - 10 - - - -
17/12:30am 18.0 SSW 2 4 1024.2 - 0.0 - Partly cloudy 10 - - - -
17/12:00am 18.1 SW 3 5 1024.2 - 0.0 - Cloudy 10 - - - -
 
Date/Time
EST
Temp

°C
Wind Pressure Rain
since 9am
mm
Weather Cloud Vis
km
Sea
Height
m
Swell
Dir
 
Speed
knots
Gust
knots
hPa Trend Height
m
Period
s
Dir
16/11:30pm 18.3 SSW 1 4 1024.4 - 0.0 - Partly cloudy 10 - - - -
16/11:00pm 18.1 SSW 3 4 1024.5 - 0.0 - Partly cloudy 10 - - - -
16/10:30pm 17.9 CALM 0 3 1024.5 - 0.0 - Partly cloudy 10 - - - -
16/10:00pm 17.9 SW 1 4 1024.5 - 0.0 - Partly cloudy 10 - - - -
16/09:30pm 17.8 SW 3 4 1024.6 - 0.0 - - 10 - - - -
16/09:00pm 18.3 WSW 3 5 1024.6 - 0.0 - Mostly clear 10 - - - -
16/08:30pm 18.8 WSW 6 7 1024.7 - 0.0 - - 10 - - - -
16/08:00pm 18.6 WSW 4 5 1024.6 - 0.0 - - 10 - - - -
16/07:30pm 19.2 WSW 5 7 1024.2 - 0.0 - - 10 - - - -
16/07:00pm 19.5 WSW 4 4 1024.0 - 0.0 - - 10 - - - -
16/06:30pm 20.2 WSW 4 4 1023.9 - 0.0 - - 10 - - - -
16/06:00pm 21.5 NE 3 6 1023.6 - 0.0 - - 10 - - - -
16/05:30pm 23.0 NE 6 8 1023.2 - 0.0 - - 10 - - - -
16/05:00pm 23.7 ENE 6 7 1023.0 - 0.0 - - 10 - - - -
16/04:30pm 24.3 NE 7 9 1022.9 - 0.0 - - 10 - - - -
16/04:00pm 24.5 NE 6 9 1022.9 - 0.0 - - 10 - - - -
16/03:30pm 24.9 ENE 8 11 1022.8 - 0.0 - - 10 - - - -
16/03:00pm 25.3 ENE 8 11 1022.9 - 0.0 - - 10 - - - -
16/02:30pm 25.5 ENE 9 11 1023.0 - 0.0 - - 10 - - - -
16/02:00pm 25.2 NE 9 12 1023.1 - 0.0 - - 10 - - - -
16/01:30pm 25.3 NE 8 12 1023.3 - 0.0 - - 10 - - - -
16/01:00pm 26.0 ENE 8 11 1023.6 - 0.0 - - 10 - - - -
16/12:30pm 25.3 NE 7 10 1024.0 - 0.0 - - 10 - - - -
16/12:00pm 25.1 NE 7 11 1024.6 - 0.0 - - 10 - - - -
16/11:30am 25.1 NE 7 11 1024.9 - 0.0 - - 10 - - - -
16/11:00am 24.7 NE 6 9 1025.7 - 0.0 - - 10 - - - -
16/10:30am 25.1 NE 8 10 1025.8 - 0.0 - - 10 - - - -
16/10:00am 25.0 NE 8 10 1026.1 - 0.0 - Partly cloudy 10 - - - -
16/09:30am 24.3 SSE 4 7 1026.2 - 0.0 - - 10 - - - -
16/09:00am 24.1 SSE 4 6 1026.3 - 0.0 - - 10 - - - -
16/08:30am 22.9 SSE 4 5 1026.3 - 0.0 - - 10 - - - -
16/08:00am 21.0 SW 4 6 1026.5 - 0.0 - - 10 - - - -
16/07:30am 19.0 SW 3 5 1025.9 - 0.0 - - 10 - - - -
16/07:00am 18.1 S 3 3 1025.7 - 0.0 - - 10 - - - -
16/06:30am 16.3 SSW 4 5 1025.4 - 0.0 - - 10 - - - -
16/06:00am 15.9 CALM 0 0 1024.9 - 0.0 - - 10 - - - -
16/05:30am 16.1 SSW 1 3 1024.9 - 0.0 - - 10 - - - -
16/05:00am 16.0 SSW 3 4 1024.8 - 0.0 - - 10 - - - -
16/04:30am 16.4 SSW 1 3 1024.6 - 0.0 - - 10 - - - -
16/04:00am 15.9 SSW 3 4 1024.5 - 0.0 - - 10 - - - -
16/03:30am 16.1 SSW 2 4 1024.5 - 0.0 - - 10 - - - -
16/03:00am 16.3 SW 3 4 1024.4 - 0.0 - - 10 - - - -
16/02:30am 16.1 SW 4 5 1024.6 - 0.0 - - 10 - - - -
16/02:00am 16.5 SSW 3 4 1025.0 - 0.0 - - 10 - - - -
16/01:30am 16.5 SW 3 5 1025.2 - 0.0 - - 10 - - - -
16/01:00am 16.4 SSW 3 4 1025.5 - 0.0 - Partly cloudy 10 - - - -
16/12:30am 17.1 S 4 4 1025.7 - 0.0 - - 10 - - - -
16/12:00am 17.0 S 3 4 1025.8 - 0.0 - - 10 - - - -
 
Date/Time
EST
Temp

°C
Wind Pressure Rain
since 9am
mm
Weather Cloud Vis
km
Sea
Height
m
Swell
Dir
 
Speed
knots
Gust
knots
hPa Trend Height
m
Period
s
Dir
15/11:30pm 17.2 SW 3 3 1025.8 - 0.0 - - 10 - - - -
15/11:00pm 17.4 WSW 1 4 1026.0 - 0.0 - - 10 - - - -
15/10:30pm 17.5 SW 3 5 1026.0 - 0.0 - - 10 - - - -
15/10:00pm 17.6 SW 4 6 1025.9 - 0.0 - - 10 - - - -

Other Formats:

Comma delimited format used in spreadsheet applications
http://www.bom.gov.au/fwo/IDQ60701/IDQ60701.94592.axf

JavaScript Object Notation format (JSON) in row-major order
http://www.bom.gov.au/fwo/IDQ60701/IDQ60701.94592.json